sensor_id;sensor_type;location;lat;lon;timestamp;P1;P2;P0
72854;PMS7003;60991;51.278;22.550;2023-07-20T00:01:11;10.00;7.00;6.25
72854;PMS7003;60991;51.278;22.550;2023-07-20T00:02:41;9.00;9.00;7.75
72854;PMS7003;60991;51.278;22.550;2023-07-20T00:04:11;11.50;9.50;6.75
72854;PMS7003;60991;51.278;22.550;2023-07-20T00:05:42;10.75;9.00;4.75
72854;PMS7003;60991;51.278;22.550;2023-07-20T00:07:13;10.00;9.00;6.75
72854;PMS7003;60991;51.278;22.550;2023-07-20T00:08:43;10.25;9.25;8.00
72854;PMS7003;60991;51.278;22.550;2023-07-20T00:10:13;7.50;6.00;4.00
72854;PMS7003;60991;51.278;22.550;2023-07-20T00:11:50;9.75;9.75;8.00
72854;PMS7003;60991;51.278;22.550;2023-07-20T00:13:21;7.00;7.00;5.00
72854;PMS7003;60991;51.278;22.550;2023-07-20T00:14:51;8.75;7.75;6.25
72854;PMS7003;60991;51.278;22.550;2023-07-20T00:16:21;10.25;9.00;6.00
72854;PMS7003;60991;51.278;22.550;2023-07-20T00:17:52;10.25;10.25;7.25
72854;PMS7003;60991;51.278;22.550;2023-07-20T00:19:25;10.00;8.00;6.00
72854;PMS7003;60991;51.278;22.550;2023-07-20T00:20:57;8.75;8.00;6.00
72854;PMS7003;60991;51.278;22.550;2023-07-20T00:22:27;9.00;7.25;6.00
72854;PMS7003;60991;51.278;22.550;2023-07-20T00:23:57;8.75;6.75;5.00
72854;PMS7003;60991;51.278;22.550;2023-07-20T00:25:27;9.00;9.00;5.50
72854;PMS7003;60991;51.278;22.550;2023-07-20T00:26:58;8.00;8.00;6.00
72854;PMS7003;60991;51.278;22.550;2023-07-20T00:28:28;10.50;8.00;6.00
72854;PMS7003;60991;51.278;22.550;2023-07-20T00:29:58;7.25;7.25;6.25
72854;PMS7003;60991;51.278;22.550;2023-07-20T00:31:28;8.75;7.75;6.00
72854;PMS7003;60991;51.278;22.550;2023-07-20T00:32:58;8.50;7.25;5.00
72854;PMS7003;60991;51.278;22.550;2023-07-20T00:34:29;9.50;8.50;6.00
72854;PMS7003;60991;51.278;22.550;2023-07-20T00:35:59;8.50;8.50;7.00
72854;PMS7003;60991;51.278;22.550;2023-07-20T00:37:29;7.75;7.75;6.00
72854;PMS7003;60991;51.278;22.550;2023-07-20T00:38:59;10.00;7.50;6.00
72854;PMS7003;60991;51.278;22.550;2023-07-20T00:40:36;10.00;9.00;7.00
72854;PMS7003;60991;51.278;22.550;2023-07-20T00:42:10;9.75;8.00;5.25
72854;PMS7003;60991;51.278;22.550;2023-07-20T00:43:40;8.75;8.75;6.00
72854;PMS7003;60991;51.278;22.550;2023-07-20T00:45:10;12.75;11.00;7.00
72854;PMS7003;60991;51.278;22.550;2023-07-20T00:46:40;6.50;6.00;5.00
72854;PMS7003;60991;51.278;22.550;2023-07-20T00:48:11;9.00;7.75;6.00
72854;PMS7003;60991;51.278;22.550;2023-07-20T00:49:42;8.00;8.00;5.50
72854;PMS7003;60991;51.278;22.550;2023-07-20T00:51:12;7.75;7.75;6.00
72854;PMS7003;60991;51.278;22.550;2023-07-20T00:52:43;8.50;8.25;6.25
72854;PMS7003;60991;51.278;22.550;2023-07-20T00:54:14;9.00;9.00;5.75
72854;PMS7003;60991;51.278;22.550;2023-07-20T00:55:44;10.25;10.00;7.25
72854;PMS7003;60991;51.278;22.550;2023-07-20T00:57:15;8.50;8.00;6.75
72854;PMS7003;60991;51.278;22.550;2023-07-20T00:58:45;8.00;8.00;6.25
72854;PMS7003;60991;51.278;22.550;2023-07-20T01:00:16;9.25;9.25;7.50
72854;PMS7003;60991;51.278;22.550;2023-07-20T01:01:47;10.75;9.00;6.75
72854;PMS7003;60991;51.278;22.550;2023-07-20T01:03:17;8.50;8.50;7.25
72854;PMS7003;60991;51.278;22.550;2023-07-20T01:04:47;10.25;9.25;6.75
72854;PMS7003;60991;51.278;22.550;2023-07-20T01:06:39;10.25;8.75;6.75
72854;PMS7003;60991;51.278;22.550;2023-07-20T01:08:24;10.50;10.50;6.75
72854;PMS7003;60991;51.278;22.550;2023-07-20T01:12:05;9.25;8.75;6.50
72854;PMS7003;60991;51.278;22.550;2023-07-20T01:13:41;11.50;10.75;7.75
72854;PMS7003;60991;51.278;22.550;2023-07-20T01:15:13;9.00;8.00;7.00
72854;PMS7003;60991;51.278;22.550;2023-07-20T01:16:44;10.25;8.50;5.00
72854;PMS7003;60991;51.278;22.550;2023-07-20T01:18:14;12.25;11.00;8.00
72854;PMS7003;60991;51.278;22.550;2023-07-20T01:19:44;8.75;8.75;6.00
72854;PMS7003;60991;51.278;22.550;2023-07-20T01:21:17;7.25;7.25;5.75
72854;PMS7003;60991;51.278;22.550;2023-07-20T01:25:13;13.00;10.50;7.75
72854;PMS7003;60991;51.278;22.550;2023-07-20T01:30:55;7.50;7.50;3.50
72854;PMS7003;60991;51.278;22.550;2023-07-20T01:32:33;13.50;10.00;6.00
72854;PMS7003;60991;51.278;22.550;2023-07-20T01:34:05;10.50;7.00;5.75
72854;PMS7003;60991;51.278;22.550;2023-07-20T01:35:37;10.00;9.75;6.00
72854;PMS7003;60991;51.278;22.550;2023-07-20T01:37:08;6.25;6.25;5.00
72854;PMS7003;60991;51.278;22.550;2023-07-20T01:38:40;8.00;8.00;5.75
72854;PMS7003;60991;51.278;22.550;2023-07-20T01:40:11;9.25;8.25;5.00
72854;PMS7003;60991;51.278;22.550;2023-07-20T01:41:44;10.75;9.00;5.25
72854;PMS7003;60991;51.278;22.550;2023-07-20T01:43:15;10.00;8.75;6.75
72854;PMS7003;60991;51.278;22.550;2023-07-20T01:44:46;8.75;8.75;6.00
72854;PMS7003;60991;51.278;22.550;2023-07-20T01:46:16;9.00;6.75;5.25
72854;PMS7003;60991;51.278;22.550;2023-07-20T01:47:46;8.75;8.75;7.75
72854;PMS7003;60991;51.278;22.550;2023-07-20T01:49:16;9.75;8.75;6.25
72854;PMS7003;60991;51.278;22.550;2023-07-20T01:50:47;7.00;7.00;5.25
72854;PMS7003;60991;51.278;22.550;2023-07-20T01:52:17;7.50;7.00;5.25
72854;PMS7003;60991;51.278;22.550;2023-07-20T01:53:47;8.00;7.00;5.50
72854;PMS7003;60991;51.278;22.550;2023-07-20T01:55:17;9.50;6.00;5.00
72854;PMS7003;60991;51.278;22.550;2023-07-20T01:56:47;6.25;6.25;5.00
72854;PMS7003;60991;51.278;22.550;2023-07-20T01:58:18;7.25;6.50;5.50
72854;PMS7003;60991;51.278;22.550;2023-07-20T01:59:48;9.25;6.25;4.50
72854;PMS7003;60991;51.278;22.550;2023-07-20T02:01:18;10.75;9.75;7.50
72854;PMS7003;60991;51.278;22.550;2023-07-20T02:02:48;6.00;6.00;5.25
72854;PMS7003;60991;51.278;22.550;2023-07-20T02:04:18;7.00;6.00;5.25
72854;PMS7003;60991;51.278;22.550;2023-07-20T02:05:49;6.75;6.75;5.00
72854;PMS7003;60991;51.278;22.550;2023-07-20T02:07:19;8.00;6.00;5.00
72854;PMS7003;60991;51.278;22.550;2023-07-20T02:08:49;13.00;10.00;7.50
72854;PMS7003;60991;51.278;22.550;2023-07-20T02:10:19;5.75;5.75;4.50
72854;PMS7003;60991;51.278;22.550;2023-07-20T02:11:49;10.00;7.00;5.25
72854;PMS7003;60991;51.278;22.550;2023-07-20T02:13:20;10.25;7.50;5.00
72854;PMS7003;60991;51.278;22.550;2023-07-20T02:14:50;6.75;5.75;4.75
72854;PMS7003;60991;51.278;22.550;2023-07-20T02:16:20;11.75;9.00;6.00
72854;PMS7003;60991;51.278;22.550;2023-07-20T02:17:50;8.25;8.25;5.75
72854;PMS7003;60991;51.278;22.550;2023-07-20T02:19:20;8.25;7.75;5.50
72854;PMS7003;60991;51.278;22.550;2023-07-20T02:20:52;6.50;6.00;4.75
72854;PMS7003;60991;51.278;22.550;2023-07-20T02:22:23;8.00;7.00;5.00
72854;PMS7003;60991;51.278;22.550;2023-07-20T02:23:53;8.75;7.25;5.00
72854;PMS7003;60991;51.278;22.550;2023-07-20T02:25:23;10.75;10.75;7.00
72854;PMS7003;60991;51.278;22.550;2023-07-20T02:26:54;7.25;7.00;5.25
72854;PMS7003;60991;51.278;22.550;2023-07-20T02:28:24;7.75;7.75;7.00
72854;PMS7003;60991;51.278;22.550;2023-07-20T02:29:54;8.00;8.00;5.25
72854;PMS7003;60991;51.278;22.550;2023-07-20T02:31:24;7.25;7.25;5.00
72854;PMS7003;60991;51.278;22.550;2023-07-20T02:32:54;8.50;8.50;6.75
72854;PMS7003;60991;51.278;22.550;2023-07-20T02:34:25;13.50;11.00;7.75
72854;PMS7003;60991;51.278;22.550;2023-07-20T02:35:55;6.75;6.25;3.25
72854;PMS7003;60991;51.278;22.550;2023-07-20T02:37:25;10.25;10.25;6.75
72854;PMS7003;60991;51.278;22.550;2023-07-20T02:38:55;8.00;6.50;4.50
72854;PMS7003;60991;51.278;22.550;2023-07-20T02:40:26;10.25;10.25;7.25
72854;PMS7003;60991;51.278;22.550;2023-07-20T02:41:56;12.25;8.25;5.75
72854;PMS7003;60991;51.278;22.550;2023-07-20T02:43:26;9.25;8.50;6.50
72854;PMS7003;60991;51.278;22.550;2023-07-20T02:44:56;8.25;7.00;5.00
72854;PMS7003;60991;51.278;22.550;2023-07-20T02:46:26;11.50;8.50;5.50
72854;PMS7003;60991;51.278;22.550;2023-07-20T02:47:57;9.75;9.25;7.00
72854;PMS7003;60991;51.278;22.550;2023-07-20T02:49:27;9.50;8.25;6.75
72854;PMS7003;60991;51.278;22.550;2023-07-20T02:50:58;7.75;7.75;6.00
72854;PMS7003;60991;51.278;22.550;2023-07-20T02:52:28;9.00;7.25;5.00
72854;PMS7003;60991;51.278;22.550;2023-07-20T02:53:58;6.50;6.50;4.25
72854;PMS7003;60991;51.278;22.550;2023-07-20T02:55:29;9.50;9.00;5.75
72854;PMS7003;60991;51.278;22.550;2023-07-20T02:56:59;12.50;9.25;6.00
72854;PMS7003;60991;51.278;22.550;2023-07-20T02:58:29;8.00;8.00;5.00
72854;PMS7003;60991;51.278;22.550;2023-07-20T02:59:59;8.50;7.75;5.75
72854;PMS7003;60991;51.278;22.550;2023-07-20T03:01:29;8.75;8.75;6.75
72854;PMS7003;60991;51.278;22.550;2023-07-20T03:03:00;6.75;6.75;6.00
72854;PMS7003;60991;51.278;22.550;2023-07-20T03:04:30;8.00;8.00;5.75
72854;PMS7003;60991;51.278;22.550;2023-07-20T03:06:00;8.50;8.50;6.75
72854;PMS7003;60991;51.278;22.550;2023-07-20T03:07:30;9.25;9.25;6.75
72854;PMS7003;60991;51.278;22.550;2023-07-20T03:09:00;10.00;8.25;6.00
72854;PMS7003;60991;51.278;22.550;2023-07-20T03:10:31;11.50;10.50;5.75
72854;PMS7003;60991;51.278;22.550;2023-07-20T03:12:01;7.25;6.75;5.75
72854;PMS7003;60991;51.278;22.550;2023-07-20T03:13:31;5.75;5.75;4.75
72854;PMS7003;60991;51.278;22.550;2023-07-20T03:15:02;7.75;6.75;3.75
72854;PMS7003;60991;51.278;22.550;2023-07-20T03:16:33;7.50;7.50;5.50
72854;PMS7003;60991;51.278;22.550;2023-07-20T03:18:03;11.25;9.75;7.25
72854;PMS7003;60991;51.278;22.550;2023-07-20T03:19:33;10.25;8.25;5.75
72854;PMS7003;60991;51.278;22.550;2023-07-20T03:21:04;10.00;10.00;7.25
72854;PMS7003;60991;51.278;22.550;2023-07-20T03:22:35;8.00;7.50;6.00
72854;PMS7003;60991;51.278;22.550;2023-07-20T03:24:05;10.25;8.50;6.50
72854;PMS7003;60991;51.278;22.550;2023-07-20T03:25:35;9.25;7.25;5.75
72854;PMS7003;60991;51.278;22.550;2023-07-20T03:27:06;8.75;8.75;5.75
72854;PMS7003;60991;51.278;22.550;2023-07-20T03:28:36;10.25;8.25;6.50
72854;PMS7003;60991;51.278;22.550;2023-07-20T03:30:07;11.00;8.75;6.75
72854;PMS7003;60991;51.278;22.550;2023-07-20T03:31:37;8.50;8.50;7.00
72854;PMS7003;60991;51.278;22.550;2023-07-20T03:33:08;7.50;7.50;5.00
72854;PMS7003;60991;51.278;22.550;2023-07-20T03:34:38;8.25;7.00;5.75
72854;PMS7003;60991;51.278;22.550;2023-07-20T03:36:08;10.25;7.75;5.00
72854;PMS7003;60991;51.278;22.550;2023-07-20T03:37:38;10.25;8.75;6.50
72854;PMS7003;60991;51.278;22.550;2023-07-20T03:39:08;9.00;7.00;5.75
72854;PMS7003;60991;51.278;22.550;2023-07-20T03:40:39;10.50;7.25;5.50
72854;PMS7003;60991;51.278;22.550;2023-07-20T03:42:09;8.75;8.75;6.00
72854;PMS7003;60991;51.278;22.550;2023-07-20T03:43:39;11.25;9.75;7.00
72854;PMS7003;60991;51.278;22.550;2023-07-20T03:45:09;12.00;10.00;6.25
72854;PMS7003;60991;51.278;22.550;2023-07-20T03:46:40;10.25;10.25;5.25
72854;PMS7003;60991;51.278;22.550;2023-07-20T03:48:10;10.25;9.25;6.75
72854;PMS7003;60991;51.278;22.550;2023-07-20T03:49:40;9.75;8.25;6.75
72854;PMS7003;60991;51.278;22.550;2023-07-20T03:51:10;8.25;8.00;6.00
72854;PMS7003;60991;51.278;22.550;2023-07-20T03:52:41;7.00;6.75;5.25
72854;PMS7003;60991;51.278;22.550;2023-07-20T03:54:11;10.00;9.75;6.75
72854;PMS7003;60991;51.278;22.550;2023-07-20T03:55:41;10.25;9.25;6.25
72854;PMS7003;60991;51.278;22.550;2023-07-20T03:57:14;10.00;9.50;5.75
72854;PMS7003;60991;51.278;22.550;2023-07-20T03:58:44;10.00;10.00;6.00
72854;PMS7003;60991;51.278;22.550;2023-07-20T04:00:15;9.75;9.75;6.00
72854;PMS7003;60991;51.278;22.550;2023-07-20T04:01:45;9.75;9.50;7.50
72854;PMS7003;60991;51.278;22.550;2023-07-20T04:03:15;10.25;9.75;6.75
72854;PMS7003;60991;51.278;22.550;2023-07-20T04:04:46;8.25;8.25;5.25
72854;PMS7003;60991;51.278;22.550;2023-07-20T04:06:16;9.50;9.50;8.00
72854;PMS7003;60991;51.278;22.550;2023-07-20T04:07:46;9.50;7.75;5.50
72854;PMS7003;60991;51.278;22.550;2023-07-20T04:09:17;9.75;9.25;6.75
72854;PMS7003;60991;51.278;22.550;2023-07-20T04:10:47;9.50;9.00;7.00
72854;PMS7003;60991;51.278;22.550;2023-07-20T04:12:17;8.50;8.50;6.75
72854;PMS7003;60991;51.278;22.550;2023-07-20T04:13:47;9.75;9.75;7.75
72854;PMS7003;60991;51.278;22.550;2023-07-20T04:15:17;9.75;9.00;6.25
72854;PMS7003;60991;51.278;22.550;2023-07-20T04:16:48;8.75;7.75;5.25
72854;PMS7003;60991;51.278;22.550;2023-07-20T04:18:18;10.25;9.75;6.75
72854;PMS7003;60991;51.278;22.550;2023-07-20T04:19:48;10.75;9.75;7.75
72854;PMS7003;60991;51.278;22.550;2023-07-20T04:21:18;8.50;8.50;6.50
72854;PMS7003;60991;51.278;22.550;2023-07-20T04:22:48;10.25;9.00;7.25
72854;PMS7003;60991;51.278;22.550;2023-07-20T04:24:19;7.50;6.00;4.00
72854;PMS7003;60991;51.278;22.550;2023-07-20T04:25:49;10.50;10.25;8.00
72854;PMS7003;60991;51.278;22.550;2023-07-20T04:27:20;13.25;11.00;7.50
72854;PMS7003;60991;51.278;22.550;2023-07-20T04:28:50;12.00;12.00;7.75
72854;PMS7003;60991;51.278;22.550;2023-07-20T04:30:21;9.50;9.00;7.00
72854;PMS7003;60991;51.278;22.550;2023-07-20T04:31:51;12.50;12.50;7.75
72854;PMS7003;60991;51.278;22.550;2023-07-20T04:33:21;11.00;9.25;7.25
72854;PMS7003;60991;51.278;22.550;2023-07-20T04:34:51;8.75;8.75;5.50
72854;PMS7003;60991;51.278;22.550;2023-07-20T04:36:21;13.75;13.75;9.50
72854;PMS7003;60991;51.278;22.550;2023-07-20T04:37:52;12.75;10.50;6.25
72854;PMS7003;60991;51.278;22.550;2023-07-20T04:39:22;9.25;8.00;5.25
72854;PMS7003;60991;51.278;22.550;2023-07-20T04:40:52;12.50;12.50;7.25
72854;PMS7003;60991;51.278;22.550;2023-07-20T04:42:22;12.75;11.00;7.50
72854;PMS7003;60991;51.278;22.550;2023-07-20T04:43:53;11.00;11.00;8.25
72854;PMS7003;60991;51.278;22.550;2023-07-20T04:45:23;11.00;9.75;6.50
72854;PMS7003;60991;51.278;22.550;2023-07-20T04:46:53;10.50;10.50;8.00
72854;PMS7003;60991;51.278;22.550;2023-07-20T04:48:23;13.00;11.75;8.75
72854;PMS7003;60991;51.278;22.550;2023-07-20T04:49:53;9.75;9.75;7.50
72854;PMS7003;60991;51.278;22.550;2023-07-20T04:51:24;11.25;11.25;7.25
72854;PMS7003;60991;51.278;22.550;2023-07-20T04:52:54;13.25;10.75;7.75
72854;PMS7003;60991;51.278;22.550;2023-07-20T04:54:24;15.75;13.75;8.00
72854;PMS7003;60991;51.278;22.550;2023-07-20T04:55:54;13.75;13.50;8.50
72854;PMS7003;60991;51.278;22.550;2023-07-20T04:57:25;15.25;14.50;10.50
72854;PMS7003;60991;51.278;22.550;2023-07-20T04:58:55;14.25;13.00;9.25
72854;PMS7003;60991;51.278;22.550;2023-07-20T05:00:25;15.50;14.50;10.75
72854;PMS7003;60991;51.278;22.550;2023-07-20T05:01:55;17.00;15.75;10.25
72854;PMS7003;60991;51.278;22.550;2023-07-20T05:03:25;18.25;16.00;11.00
72854;PMS7003;60991;51.278;22.550;2023-07-20T05:04:56;16.75;16.00;11.50
72854;PMS7003;60991;51.278;22.550;2023-07-20T05:06:26;16.75;16.25;11.75
72854;PMS7003;60991;51.278;22.550;2023-07-20T05:07:56;15.50;15.00;11.00
72854;PMS7003;60991;51.278;22.550;2023-07-20T05:09:26;19.00;16.25;10.00
72854;PMS7003;60991;51.278;22.550;2023-07-20T05:10:57;18.50;17.75;12.00
72854;PMS7003;60991;51.278;22.550;2023-07-20T05:12:27;17.25;16.75;11.75
72854;PMS7003;60991;51.278;22.550;2023-07-20T05:13:57;14.00;13.25;9.25
72854;PMS7003;60991;51.278;22.550;2023-07-20T05:15:27;18.25;16.75;12.25
72854;PMS7003;60991;51.278;22.550;2023-07-20T05:16:58;18.00;15.00;10.25
72854;PMS7003;60991;51.278;22.550;2023-07-20T05:18:28;17.75;16.25;11.00
72854;PMS7003;60991;51.278;22.550;2023-07-20T05:19:58;16.00;13.75;10.25
72854;PMS7003;60991;51.278;22.550;2023-07-20T05:21:28;19.50;18.50;13.00
72854;PMS7003;60991;51.278;22.550;2023-07-20T05:22:59;19.75;17.75;12.25
72854;PMS7003;60991;51.278;22.550;2023-07-20T05:24:29;18.75;17.25;13.00
72854;PMS7003;60991;51.278;22.550;2023-07-20T05:25:59;26.00;22.75;14.50
72854;PMS7003;60991;51.278;22.550;2023-07-20T05:27:29;23.00;20.75;14.00
72854;PMS7003;60991;51.278;22.550;2023-07-20T05:29:00;20.50;20.25;12.75
72854;PMS7003;60991;51.278;22.550;2023-07-20T05:30:30;19.25;18.25;11.00
72854;PMS7003;60991;51.278;22.550;2023-07-20T05:32:00;19.25;17.50;12.75
72854;PMS7003;60991;51.278;22.550;2023-07-20T05:33:30;23.00;21.25;14.25
72854;PMS7003;60991;51.278;22.550;2023-07-20T05:35:00;21.75;18.50;12.75
72854;PMS7003;60991;51.278;22.550;2023-07-20T05:36:31;22.00;19.75;15.75
72854;PMS7003;60991;51.278;22.550;2023-07-20T05:38:01;18.00;17.50;13.00
72854;PMS7003;60991;51.278;22.550;2023-07-20T05:39:34;24.75;21.75;15.50
72854;PMS7003;60991;51.278;22.550;2023-07-20T05:41:04;23.75;22.50;15.50
72854;PMS7003;60991;51.278;22.550;2023-07-20T05:42:35;19.50;18.50;14.50
72854;PMS7003;60991;51.278;22.550;2023-07-20T05:44:05;24.75;20.50;15.00
72854;PMS7003;60991;51.278;22.550;2023-07-20T05:45:35;23.25;20.25;14.25
72854;PMS7003;60991;51.278;22.550;2023-07-20T05:47:05;23.75;22.75;16.00
72854;PMS7003;60991;51.278;22.550;2023-07-20T05:48:35;24.25;23.75;15.75
72854;PMS7003;60991;51.278;22.550;2023-07-20T05:50:06;26.25;22.75;15.00
72854;PMS7003;60991;51.278;22.550;2023-07-20T05:51:36;26.00;24.75;17.25
72854;PMS7003;60991;51.278;22.550;2023-07-20T05:53:06;25.00;22.00;16.25
72854;PMS7003;60991;51.278;22.550;2023-07-20T05:54:37;24.00;24.00;17.00
72854;PMS7003;60991;51.278;22.550;2023-07-20T05:56:07;24.00;23.50;16.50
72854;PMS7003;60991;51.278;22.550;2023-07-20T05:57:37;28.75;25.00;17.25
72854;PMS7003;60991;51.278;22.550;2023-07-20T05:59:07;26.25;25.00;19.00
72854;PMS7003;60991;51.278;22.550;2023-07-20T06:00:37;27.00;24.00;18.50
72854;PMS7003;60991;51.278;22.550;2023-07-20T06:02:08;30.25;28.75;18.00
72854;PMS7003;60991;51.278;22.550;2023-07-20T06:03:38;23.75;23.75;16.25
72854;PMS7003;60991;51.278;22.550;2023-07-20T06:05:08;24.75;23.25;17.25
72854;PMS7003;60991;51.278;22.550;2023-07-20T06:06:38;23.00;22.75;16.50
72854;PMS7003;60991;51.278;22.550;2023-07-20T06:08:09;22.00;22.00;15.25
72854;PMS7003;60991;51.278;22.550;2023-07-20T06:09:39;17.75;17.75;12.00
72854;PMS7003;60991;51.278;22.550;2023-07-20T06:11:10;16.50;16.50;12.00
72854;PMS7003;60991;51.278;22.550;2023-07-20T06:12:40;17.50;15.00;10.50
72854;PMS7003;60991;51.278;22.550;2023-07-20T06:14:10;19.50;19.25;11.25
72854;PMS7003;60991;51.278;22.550;2023-07-20T06:15:40;11.25;11.00;7.50
72854;PMS7003;60991;51.278;22.550;2023-07-20T06:17:10;18.50;17.50;13.00
72854;PMS7003;60991;51.278;22.550;2023-07-20T06:18:41;17.25;16.00;12.00
72854;PMS7003;60991;51.278;22.550;2023-07-20T06:20:11;15.75;13.75;10.75
72854;PMS7003;60991;51.278;22.550;2023-07-20T06:21:41;16.00;15.00;11.25
72854;PMS7003;60991;51.278;22.550;2023-07-20T06:23:12;14.75;13.50;9.00
72854;PMS7003;60991;51.278;22.550;2023-07-20T06:24:42;16.00;13.25;10.00
72854;PMS7003;60991;51.278;22.550;2023-07-20T06:26:12;15.50;13.75;9.75
72854;PMS7003;60991;51.278;22.550;2023-07-20T06:27:42;15.50;15.50;10.75
72854;PMS7003;60991;51.278;22.550;2023-07-20T06:29:13;15.00;13.25;9.75
72854;PMS7003;60991;51.278;22.550;2023-07-20T06:30:43;14.25;12.00;10.00
72854;PMS7003;60991;51.278;22.550;2023-07-20T06:32:13;15.00;12.75;8.00
72854;PMS7003;60991;51.278;22.550;2023-07-20T06:33:43;17.50;12.25;10.75
72854;PMS7003;60991;51.278;22.550;2023-07-20T06:35:14;15.25;12.25;9.25
72854;PMS7003;60991;51.278;22.550;2023-07-20T06:36:46;11.75;11.25;9.00
72854;PMS7003;60991;51.278;22.550;2023-07-20T06:38:16;10.75;10.25;8.00
72854;PMS7003;60991;51.278;22.550;2023-07-20T06:39:46;11.75;11.75;9.25
72854;PMS7003;60991;51.278;22.550;2023-07-20T06:41:16;12.00;12.00;8.50
72854;PMS7003;60991;51.278;22.550;2023-07-20T06:42:46;11.75;11.50;9.00
72854;PMS7003;60991;51.278;22.550;2023-07-20T06:44:17;13.00;11.50;9.25
72854;PMS7003;60991;51.278;22.550;2023-07-20T06:45:53;12.00;10.00;8.00
72854;PMS7003;60991;51.278;22.550;2023-07-20T06:47:24;9.75;9.75;8.50
72854;PMS7003;60991;51.278;22.550;2023-07-20T06:48:54;11.25;11.25;8.75
72854;PMS7003;60991;51.278;22.550;2023-07-20T06:50:24;10.25;9.25;7.75
72854;PMS7003;60991;51.278;22.550;2023-07-20T06:51:54;9.00;9.00;7.00
72854;PMS7003;60991;51.278;22.550;2023-07-20T06:53:24;11.00;8.25;7.00
72854;PMS7003;60991;51.278;22.550;2023-07-20T06:54:55;10.75;10.50;7.50
72854;PMS7003;60991;51.278;22.550;2023-07-20T06:56:25;7.75;7.75;6.50
72854;PMS7003;60991;51.278;22.550;2023-07-20T06:57:55;11.50;9.75;8.00
72854;PMS7003;60991;51.278;22.550;2023-07-20T06:59:25;9.50;7.50;5.00
72854;PMS7003;60991;51.278;22.550;2023-07-20T07:00:55;7.50;7.50;6.75
72854;PMS7003;60991;51.278;22.550;2023-07-20T07:02:26;8.50;7.50;6.25
72854;PMS7003;60991;51.278;22.550;2023-07-20T07:03:56;11.00;9.00;7.00
72854;PMS7003;60991;51.278;22.550;2023-07-20T07:05:26;12.50;12.00;9.00
72854;PMS7003;60991;51.278;22.550;2023-07-20T07:06:56;13.25;13.25;9.00
72854;PMS7003;60991;51.278;22.550;2023-07-20T07:08:26;12.25;10.75;8.50
72854;PMS7003;60991;51.278;22.550;2023-07-20T07:09:57;13.00;10.00;9.25
72854;PMS7003;60991;51.278;22.550;2023-07-20T07:11:27;11.50;9.75;8.00
72854;PMS7003;60991;51.278;22.550;2023-07-20T07:12:57;12.50;11.50;9.00
72854;PMS7003;60991;51.278;22.550;2023-07-20T07:14:27;10.25;10.25;9.00
72854;PMS7003;60991;51.278;22.550;2023-07-20T07:15:58;10.75;10.75;8.00
72854;PMS7003;60991;51.278;22.550;2023-07-20T07:17:28;9.00;8.25;6.75
72854;PMS7003;60991;51.278;22.550;2023-07-20T07:18:58;11.50;9.75;7.75
72854;PMS7003;60991;51.278;22.550;2023-07-20T07:20:28;10.00;9.00;7.50
72854;PMS7003;60991;51.278;22.550;2023-07-20T07:21:59;10.00;10.00;7.75
72854;PMS7003;60991;51.278;22.550;2023-07-20T07:23:29;8.50;7.50;5.75
72854;PMS7003;60991;51.278;22.550;2023-07-20T07:24:59;11.25;10.00;7.00
72854;PMS7003;60991;51.278;22.550;2023-07-20T07:26:29;8.00;8.00;6.50
72854;PMS7003;60991;51.278;22.550;2023-07-20T07:28:00;9.50;8.50;7.00
72854;PMS7003;60991;51.278;22.550;2023-07-20T07:29:30;12.00;9.75;7.75
72854;PMS7003;60991;51.278;22.550;2023-07-20T07:31:00;11.50;10.00;8.25
72854;PMS7003;60991;51.278;22.550;2023-07-20T07:32:31;7.75;7.75;6.00
72854;PMS7003;60991;51.278;22.550;2023-07-20T07:34:01;11.50;10.75;8.00
72854;PMS7003;60991;51.278;22.550;2023-07-20T07:35:32;12.00;10.00;8.25
72854;PMS7003;60991;51.278;22.550;2023-07-20T07:37:03;11.25;11.25;8.50
72854;PMS7003;60991;51.278;22.550;2023-07-20T07:38:34;11.75;10.25;8.00
72854;PMS7003;60991;51.278;22.550;2023-07-20T07:40:04;13.75;10.00;7.75
72854;PMS7003;60991;51.278;22.550;2023-07-20T07:41:35;13.00;12.25;10.50
72854;PMS7003;60991;51.278;22.550;2023-07-20T07:43:05;11.00;11.00;7.00
72854;PMS7003;60991;51.278;22.550;2023-07-20T07:44:35;14.75;11.25;10.00
72854;PMS7003;60991;51.278;22.550;2023-07-20T07:46:05;12.50;12.00;10.00
72854;PMS7003;60991;51.278;22.550;2023-07-20T07:47:35;11.25;10.75;8.75
72854;PMS7003;60991;51.278;22.550;2023-07-20T07:49:06;10.25;10.25;7.00
72854;PMS7003;60991;51.278;22.550;2023-07-20T07:50:36;10.25;10.25;8.00
72854;PMS7003;60991;51.278;22.550;2023-07-20T07:52:06;10.00;10.00;8.00
72854;PMS7003;60991;51.278;22.550;2023-07-20T07:53:36;8.75;8.25;6.00
72854;PMS7003;60991;51.278;22.550;2023-07-20T07:55:07;13.25;12.00;8.00
72854;PMS7003;60991;51.278;22.550;2023-07-20T07:56:37;6.50;6.50;4.50
72854;PMS7003;60991;51.278;22.550;2023-07-20T07:58:07;10.00;10.00;8.25
72854;PMS7003;60991;51.278;22.550;2023-07-20T07:59:37;9.25;9.25;7.00
72854;PMS7003;60991;51.278;22.550;2023-07-20T08:01:08;8.75;8.75;6.50
72854;PMS7003;60991;51.278;22.550;2023-07-20T08:02:38;12.00;11.00;8.25
72854;PMS7003;60991;51.278;22.550;2023-07-20T08:04:08;9.25;9.00;7.00
72854;PMS7003;60991;51.278;22.550;2023-07-20T08:05:38;9.00;8.50;7.25
72854;PMS7003;60991;51.278;22.550;2023-07-20T08:07:09;9.00;8.50;6.50
72854;PMS7003;60991;51.278;22.550;2023-07-20T08:08:39;10.75;8.00;5.25
72854;PMS7003;60991;51.278;22.550;2023-07-20T08:10:09;8.25;8.25;6.25
72854;PMS7003;60991;51.278;22.550;2023-07-20T08:11:40;9.50;9.25;6.50
72854;PMS7003;60991;51.278;22.550;2023-07-20T08:13:10;10.00;10.00;7.00
72854;PMS7003;60991;51.278;22.550;2023-07-20T08:14:40;11.50;10.25;7.75
72854;PMS7003;60991;51.278;22.550;2023-07-20T08:16:10;9.50;8.75;7.00
72854;PMS7003;60991;51.278;22.550;2023-07-20T08:17:41;10.25;10.25;7.50
72854;PMS7003;60991;51.278;22.550;2023-07-20T08:19:12;13.00;13.00;9.50
72854;PMS7003;60991;51.278;22.550;2023-07-20T08:20:45;8.50;8.00;6.50
72854;PMS7003;60991;51.278;22.550;2023-07-20T08:22:16;10.50;10.00;7.00
72854;PMS7003;60991;51.278;22.550;2023-07-20T08:23:46;4.25;2.75;2.75
72854;PMS7003;60991;51.278;22.550;2023-07-20T08:25:16;11.00;9.00;6.25
72854;PMS7003;60991;51.278;22.550;2023-07-20T08:26:46;10.00;9.75;6.75
72854;PMS7003;60991;51.278;22.550;2023-07-20T08:28:17;9.00;9.00;7.00
72854;PMS7003;60991;51.278;22.550;2023-07-20T08:29:47;8.50;8.50;6.00
72854;PMS7003;60991;51.278;22.550;2023-07-20T08:31:17;10.25;8.00;6.00
72854;PMS7003;60991;51.278;22.550;2023-07-20T08:32:47;7.50;7.50;6.00
72854;PMS7003;60991;51.278;22.550;2023-07-20T08:34:17;8.75;7.75;6.00
72854;PMS7003;60991;51.278;22.550;2023-07-20T08:35:48;5.75;5.75;4.75
72854;PMS7003;60991;51.278;22.550;2023-07-20T08:37:18;10.75;9.50;6.75
72854;PMS7003;60991;51.278;22.550;2023-07-20T08:38:48;5.75;4.75;3.00
72854;PMS7003;60991;51.278;22.550;2023-07-20T08:40:18;10.25;9.25;7.00
72854;PMS7003;60991;51.278;22.550;2023-07-20T08:41:49;6.00;5.50;4.75
72854;PMS7003;60991;51.278;22.550;2023-07-20T08:43:19;6.25;6.25;4.75